createdAt,value
2022-10-02T00:00:03.387Z,11.33
2022-10-02T00:01:03.379Z,11.34
2022-10-02T00:02:03.378Z,11.37
2022-10-02T00:03:03.354Z,11.38
2022-10-02T00:04:03.426Z,11.40
2022-10-02T00:05:03.346Z,11.37
2022-10-02T00:06:03.402Z,11.33
2022-10-02T00:07:03.352Z,11.30
2022-10-02T00:08:03.303Z,11.33
2022-10-02T00:09:03.308Z,11.36
2022-10-02T00:10:03.320Z,11.33
2022-10-02T00:11:03.268Z,11.33
2022-10-02T00:12:03.272Z,11.36
2022-10-02T00:13:03.245Z,11.40
2022-10-02T00:14:03.241Z,11.40
2022-10-02T00:15:03.230Z,11.41
2022-10-02T00:16:03.286Z,11.37
2022-10-02T00:17:03.223Z,11.36
2022-10-02T00:18:03.199Z,11.34
2022-10-02T00:19:03.183Z,11.34
2022-10-02T00:20:03.199Z,11.33
2022-10-02T00:21:03.161Z,11.31
2022-10-02T00:22:03.154Z,11.30
2022-10-02T00:23:03.138Z,11.27
2022-10-02T00:24:03.140Z,11.30
2022-10-02T00:25:03.119Z,11.33
2022-10-02T00:26:03.152Z,11.34
2022-10-02T00:27:03.106Z,11.34
2022-10-02T00:28:03.187Z,11.37
2022-10-02T00:29:03.082Z,11.37
2022-10-02T00:30:03.084Z,11.40
2022-10-02T00:31:03.068Z,11.40
2022-10-02T00:32:03.173Z,11.37
2022-10-02T00:33:03.044Z,11.36
2022-10-02T00:34:03.031Z,11.33
2022-10-02T00:35:03.026Z,11.34
2022-10-02T00:36:03.041Z,11.36
2022-10-02T00:37:03.017Z,11.36
2022-10-02T00:38:02.988Z,11.37
2022-10-02T00:39:02.961Z,11.43
2022-10-02T00:40:02.993Z,11.46
2022-10-02T00:41:02.948Z,11.54
2022-10-02T00:42:02.950Z,11.58
2022-10-02T00:43:02.942Z,11.62
2022-10-02T00:44:02.919Z,11.62
2022-10-02T00:45:02.894Z,11.66
2022-10-02T00:46:02.987Z,11.67
2022-10-02T00:47:02.874Z,11.70
2022-10-02T00:48:02.900Z,11.73
2022-10-02T00:49:02.859Z,11.73
2022-10-02T00:50:02.889Z,11.74
2022-10-02T00:51:02.833Z,11.74
2022-10-02T00:52:02.857Z,11.74
2022-10-02T00:53:02.836Z,11.76
2022-10-02T00:54:02.830Z,11.77
2022-10-02T00:55:02.804Z,11.79
2022-10-02T00:56:02.779Z,11.76
2022-10-02T00:57:02.781Z,11.80
2022-10-02T00:58:02.772Z,11.80
2022-10-02T00:59:02.748Z,11.85
2022-10-02T01:00:02.771Z,11.85
2022-10-02T01:01:02.776Z,11.87
2022-10-02T01:02:02.796Z,11.87
2022-10-02T01:03:02.711Z,11.84
2022-10-02T01:04:02.711Z,11.85
2022-10-02T01:05:02.688Z,11.87
2022-10-02T01:06:02.716Z,11.88
2022-10-02T01:07:02.675Z,11.88
2022-10-02T01:08:02.657Z,11.85
2022-10-02T01:09:02.670Z,11.89
2022-10-02T01:10:02.647Z,11.89
2022-10-02T01:11:02.641Z,11.91
2022-10-02T01:12:02.644Z,11.89
2022-10-02T01:13:02.604Z,11.91
2022-10-02T01:14:02.629Z,11.91
2022-10-02T01:15:02.607Z,11.91
2022-10-02T01:16:02.645Z,11.89
2022-10-02T01:17:02.571Z,11.89
2022-10-02T01:18:02.588Z,11.88
2022-10-02T01:19:02.551Z,11.87
2022-10-02T01:20:02.538Z,11.87
2022-10-02T01:21:02.527Z,11.87
2022-10-02T01:22:02.515Z,11.88
2022-10-02T01:23:02.488Z,11.89
2022-10-02T01:24:02.519Z,11.91
2022-10-02T01:25:02.481Z,11.93
2022-10-02T01:26:02.475Z,11.96
2022-10-02T01:27:02.461Z,11.99
2022-10-02T01:28:02.507Z,12.03
2022-10-02T01:29:02.431Z,12.05
2022-10-02T01:30:02.455Z,12.10
2022-10-02T01:31:02.410Z,12.08
2022-10-02T01:32:02.435Z,12.07
2022-10-02T01:33:02.389Z,12.07
2022-10-02T01:34:02.384Z,12.07
2022-10-02T01:35:02.387Z,12.04
2022-10-02T01:36:02.372Z,12.05
2022-10-02T01:37:02.339Z,12.04
2022-10-02T01:38:02.340Z,12.05
2022-10-02T01:39:02.324Z,12.05
2022-10-02T01:40:02.344Z,12.04
2022-10-02T01:41:02.308Z,12.04
2022-10-02T01:42:02.303Z,12.03
2022-10-02T01:43:02.288Z,12.04
2022-10-02T01:44:02.296Z,12.04
2022-10-02T01:45:02.264Z,12.03
2022-10-02T01:46:02.349Z,12.03
2022-10-02T01:47:02.230Z,12.03
2022-10-02T01:48:02.240Z,12.03
2022-10-02T01:49:02.231Z,12.00
2022-10-02T01:50:02.222Z,11.99
2022-10-02T01:51:02.223Z,12.03
2022-10-02T01:52:02.185Z,12.03
2022-10-02T01:53:02.176Z,12.03
2022-10-02T01:54:02.184Z,12.03
2022-10-02T01:55:02.158Z,12.03
2022-10-02T01:56:02.183Z,12.00
2022-10-02T01:57:02.149Z,12.03
2022-10-02T01:58:02.129Z,11.99
2022-10-02T01:59:02.134Z,11.97
2022-10-02T02:00:02.111Z,11.97
2022-10-02T02:01:02.115Z,11.96
2022-10-02T02:02:02.152Z,11.95
2022-10-02T02:03:02.066Z,11.95
2022-10-02T02:04:02.110Z,11.91
2022-10-02T02:05:02.055Z,11.91
2022-10-02T02:06:02.060Z,11.89
2022-10-02T02:07:02.050Z,11.85
2022-10-02T02:08:02.036Z,11.82
2022-10-02T02:09:02.278Z,11.79
2022-10-02T02:10:02.017Z,11.77
2022-10-02T02:11:01.981Z,11.76
2022-10-02T02:12:02.005Z,11.71
2022-10-02T02:13:01.979Z,11.71
2022-10-02T02:14:01.964Z,11.73
2022-10-02T02:15:01.945Z,11.69
2022-10-02T02:16:01.951Z,11.69
2022-10-02T02:17:01.925Z,11.69
2022-10-02T02:18:01.941Z,11.70
2022-10-02T02:19:01.983Z,11.70
2022-10-02T02:20:01.901Z,11.71
2022-10-02T02:21:01.885Z,11.71
2022-10-02T02:22:01.881Z,11.71
2022-10-02T02:23:01.865Z,11.71
2022-10-02T02:24:01.851Z,11.76
2022-10-02T02:25:01.844Z,11.77
2022-10-02T02:26:01.840Z,11.77
2022-10-02T02:27:01.875Z,11.79
2022-10-02T02:28:01.876Z,11.80
2022-10-02T02:29:01.927Z,11.84
2022-10-02T02:30:01.811Z,11.82
2022-10-02T02:31:01.777Z,11.84
2022-10-02T02:32:01.841Z,11.80
2022-10-02T02:33:01.780Z,11.79
2022-10-02T02:34:01.761Z,11.80
2022-10-02T02:35:01.731Z,11.80
2022-10-02T02:36:01.735Z,11.82
2022-10-02T02:37:01.715Z,11.80
2022-10-02T02:38:01.711Z,11.80
2022-10-02T02:39:01.708Z,11.80
2022-10-02T02:40:01.682Z,11.80
2022-10-02T02:41:01.672Z,11.80
2022-10-02T02:42:01.670Z,11.80
2022-10-02T02:43:01.651Z,11.82
2022-10-02T02:44:01.663Z,11.82
2022-10-02T02:45:01.621Z,11.82
2022-10-02T02:46:01.716Z,11.85
2022-10-02T02:47:01.589Z,11.85
2022-10-02T02:48:01.612Z,11.85
2022-10-02T02:49:01.613Z,11.87
2022-10-02T02:50:01.594Z,11.85
2022-10-02T02:51:01.578Z,11.85
2022-10-02T02:52:01.560Z,11.87
2022-10-02T02:53:01.560Z,11.85
2022-10-02T02:54:01.567Z,11.85
2022-10-02T02:55:01.557Z,11.85
2022-10-02T02:56:01.515Z,11.84
2022-10-02T02:57:01.494Z,11.82
2022-10-02T02:58:01.490Z,11.80
2022-10-02T02:59:01.502Z,11.82
2022-10-02T03:00:01.468Z,11.82
2022-10-02T03:01:01.509Z,11.80
2022-10-02T03:02:01.503Z,11.80
2022-10-02T03:03:01.423Z,11.79
2022-10-02T03:04:01.428Z,11.77
2022-10-02T03:05:01.434Z,11.74
2022-10-02T03:06:01.406Z,11.71
2022-10-02T03:07:01.392Z,11.69
2022-10-02T03:08:01.383Z,11.64
2022-10-02T03:09:01.369Z,11.64
2022-10-02T03:10:01.382Z,11.62
2022-10-02T03:11:01.339Z,11.62
2022-10-02T03:12:01.355Z,11.61
2022-10-02T03:13:01.326Z,11.59
2022-10-02T03:14:01.323Z,11.58
2022-10-02T03:15:01.321Z,11.56
2022-10-02T03:16:01.371Z,11.61
2022-10-02T03:17:01.280Z,11.67
2022-10-02T03:18:01.276Z,11.73
2022-10-02T03:19:01.264Z,11.79
2022-10-02T03:20:01.259Z,11.85
2022-10-02T03:21:01.263Z,11.88
2022-10-02T03:22:01.235Z,11.87
2022-10-02T03:23:01.244Z,11.87
2022-10-02T03:24:01.207Z,11.88
2022-10-02T03:25:01.207Z,11.85
2022-10-02T03:26:01.208Z,11.87
2022-10-02T03:27:01.167Z,11.88
2022-10-02T03:28:01.222Z,11.89
2022-10-02T03:29:01.225Z,11.89
2022-10-02T03:30:01.156Z,11.91
2022-10-02T03:31:01.160Z,11.91
2022-10-02T03:32:01.124Z,11.95
2022-10-02T03:33:01.157Z,11.95
2022-10-02T03:34:01.135Z,11.96
2022-10-02T03:35:01.099Z,11.95
2022-10-02T03:36:01.096Z,11.96
2022-10-02T03:37:01.076Z,12.00
2022-10-02T03:38:01.068Z,12.04
2022-10-02T03:39:23.781Z,12.07
2022-10-02T03:40:01.105Z,12.07
2022-10-02T03:41:01.046Z,12.10
2022-10-02T03:42:01.037Z,12.11
2022-10-02T03:43:01.012Z,12.10
2022-10-02T03:44:01.006Z,12.08
2022-10-02T03:45:01.024Z,12.07
2022-10-02T03:46:01.069Z,12.05
2022-10-02T03:47:00.980Z,12.04
2022-10-02T03:48:00.965Z,12.03
2022-10-02T03:49:00.951Z,12.00
2022-10-02T03:50:00.947Z,12.04
2022-10-02T03:51:00.967Z,12.04
2022-10-02T03:52:00.947Z,12.04
2022-10-02T03:53:00.945Z,12.05
2022-10-02T03:54:00.904Z,12.03
2022-10-02T03:55:00.921Z,12.04
2022-10-02T03:56:00.885Z,12.03
2022-10-02T03:57:00.884Z,12.04
2022-10-02T03:58:00.860Z,12.03
2022-10-02T03:59:00.857Z,12.03
2022-10-02T04:00:00.825Z,12.04
2022-10-02T04:01:00.845Z,12.00
2022-10-02T04:02:00.865Z,12.03
2022-10-02T04:03:00.802Z,11.99
2022-10-02T04:04:00.937Z,11.97
2022-10-02T04:05:00.778Z,11.99
2022-10-02T04:06:00.768Z,11.99
2022-10-02T04:07:00.783Z,11.97
2022-10-02T04:08:00.739Z,11.99
2022-10-02T04:09:00.758Z,11.97
2022-10-02T04:10:00.719Z,11.99
2022-10-02T04:11:00.729Z,11.97
2022-10-02T04:12:00.713Z,11.99
2022-10-02T04:13:00.692Z,12.00
2022-10-02T04:14:00.679Z,12.03
2022-10-02T04:15:00.698Z,12.03
2022-10-02T04:16:00.704Z,12.03
2022-10-02T04:17:00.650Z,12.04
2022-10-02T04:18:00.634Z,12.05
2022-10-02T04:19:00.633Z,12.04
2022-10-02T04:20:00.617Z,12.05
2022-10-02T04:21:00.639Z,12.05
2022-10-02T04:22:00.589Z,12.05
2022-10-02T04:23:00.602Z,12.07
2022-10-02T04:24:00.580Z,12.07
2022-10-02T04:25:00.568Z,12.05
2022-10-02T04:26:00.554Z,12.05
2022-10-02T04:27:00.579Z,12.05
2022-10-02T04:28:00.550Z,12.07
2022-10-02T04:29:00.538Z,12.04
2022-10-02T04:30:00.511Z,12.05
2022-10-02T04:31:00.535Z,12.05
2022-10-02T04:32:00.530Z,12.10
2022-10-02T04:33:00.489Z,12.11
2022-10-02T04:34:00.480Z,12.10
2022-10-02T04:35:00.468Z,12.10
2022-10-02T04:36:00.482Z,12.11
2022-10-02T04:37:00.432Z,12.11
2022-10-02T04:38:00.445Z,12.11
2022-10-02T04:39:00.428Z,12.13
2022-10-02T04:40:00.395Z,12.13
2022-10-02T04:41:00.405Z,12.14
2022-10-02T04:42:00.398Z,12.13
2022-10-02T04:43:00.386Z,12.11
2022-10-02T04:44:00.379Z,12.11
2022-10-02T04:45:00.357Z,12.10
2022-10-02T04:46:00.434Z,12.10
2022-10-02T04:47:00.379Z,12.10
2022-10-02T04:48:00.313Z,12.11
2022-10-02T04:49:00.315Z,12.11
2022-10-02T04:50:00.297Z,12.13
2022-10-02T04:51:00.303Z,12.14
2022-10-02T04:52:00.277Z,12.15
2022-10-02T04:53:00.296Z,12.18
2022-10-02T04:54:00.257Z,12.22
2022-10-02T04:55:00.261Z,12.21
2022-10-02T04:56:00.236Z,12.22
2022-10-02T04:57:00.239Z,12.25
2022-10-02T04:58:00.218Z,12.26
2022-10-02T04:59:00.214Z,12.28
2022-10-02T05:00:00.191Z,12.28
2022-10-02T05:01:00.257Z,12.32
2022-10-02T05:02:00.251Z,12.35
2022-10-02T05:03:00.196Z,12.36
2022-10-02T05:04:03.939Z,12.40
2022-10-02T05:05:00.146Z,12.41
2022-10-02T05:06:00.151Z,12.44
2022-10-02T05:07:00.143Z,12.46
2022-10-02T05:08:00.129Z,12.48
2022-10-02T05:09:00.116Z,12.47
2022-10-02T05:10:00.060Z,12.47
2022-10-02T05:11:00.114Z,12.48
2022-10-02T05:12:00.095Z,12.48
2022-10-02T05:13:00.024Z,12.50
2022-10-02T05:13:59.990Z,12.53
2022-10-02T05:15:00.008Z,12.53
2022-10-02T05:16:00.126Z,12.53
2022-10-02T05:16:59.968Z,12.53
2022-10-02T05:17:59.952Z,12.54
2022-10-02T05:18:59.950Z,12.58
2022-10-02T05:19:59.940Z,12.59
2022-10-02T05:20:59.960Z,12.58
2022-10-02T05:21:59.924Z,12.59
2022-10-02T05:22:59.916Z,12.62
2022-10-02T05:23:59.892Z,12.65
2022-10-02T05:24:59.887Z,12.65
2022-10-02T05:25:59.870Z,12.65
2022-10-02T05:26:59.865Z,12.63
2022-10-02T05:27:59.915Z,12.66
2022-10-02T05:28:59.832Z,12.66
2022-10-02T05:29:59.815Z,12.65
2022-10-02T05:30:59.944Z,12.66
2022-10-02T05:31:59.803Z,12.68
2022-10-02T05:32:59.813Z,12.69
2022-10-02T05:33:59.797Z,12.71
2022-10-02T05:34:59.765Z,12.71
2022-10-02T05:35:59.762Z,12.71
2022-10-02T05:36:59.752Z,12.72
2022-10-02T05:37:59.719Z,12.73
2022-10-02T05:38:59.773Z,12.76
2022-10-02T05:39:59.711Z,12.73
2022-10-02T05:40:59.713Z,12.76
2022-10-02T05:41:59.690Z,12.76
2022-10-02T05:42:59.688Z,12.76
2022-10-02T05:43:59.665Z,12.77
2022-10-02T05:44:59.677Z,12.79
2022-10-02T05:45:59.649Z,12.77
2022-10-02T05:46:59.686Z,12.77
2022-10-02T05:47:59.624Z,12.79
2022-10-02T05:48:59.627Z,12.77
2022-10-02T05:49:59.643Z,12.76
2022-10-02T05:50:59.598Z,12.77
2022-10-02T05:51:59.610Z,12.77
2022-10-02T05:52:59.606Z,12.77
2022-10-02T05:53:59.554Z,12.79
2022-10-02T05:54:59.558Z,12.79
2022-10-02T05:55:59.572Z,12.77
2022-10-02T05:56:59.550Z,12.77
2022-10-02T05:57:59.508Z,12.77
2022-10-02T05:58:59.516Z,12.79
2022-10-02T05:59:59.491Z,12.80
2022-10-02T06:00:59.538Z,12.77
2022-10-02T06:01:59.530Z,12.79
2022-10-02T06:02:59.485Z,12.77
2022-10-02T06:03:59.457Z,12.79
2022-10-02T06:04:59.452Z,12.79
2022-10-02T06:05:59.445Z,12.79
2022-10-02T06:06:59.483Z,12.80
2022-10-02T06:07:59.420Z,12.80
2022-10-02T06:08:59.465Z,12.80
2022-10-02T06:09:59.381Z,12.81
2022-10-02T06:10:59.392Z,12.80
2022-10-02T06:11:59.391Z,12.80
2022-10-02T06:12:59.363Z,12.81
2022-10-02T06:13:59.352Z,12.80
2022-10-02T06:14:59.368Z,12.84
2022-10-02T06:15:59.378Z,12.83
2022-10-02T06:16:59.325Z,12.84
2022-10-02T06:17:59.312Z,12.83
2022-10-02T06:18:59.331Z,12.83
2022-10-02T06:20:03.309Z,12.81
2022-10-02T06:20:59.313Z,12.83
2022-10-02T06:21:59.267Z,12.86
2022-10-02T06:22:59.257Z,12.86
2022-10-02T06:23:59.262Z,12.86
2022-10-02T06:24:59.239Z,12.86
2022-10-02T06:25:59.251Z,12.88
2022-10-02T06:26:59.217Z,12.87
2022-10-02T06:27:59.267Z,12.90
2022-10-02T06:28:59.189Z,12.91
2022-10-02T06:29:59.187Z,12.93
2022-10-02T06:30:59.189Z,12.96
2022-10-02T06:31:59.257Z,13.01
2022-10-02T06:32:59.148Z,13.02
2022-10-02T06:33:59.136Z,13.04
2022-10-02T06:34:59.138Z,13.01
2022-10-02T06:35:59.108Z,13.04
2022-10-02T06:36:59.118Z,13.04
2022-10-02T06:37:59.079Z,13.02
2022-10-02T06:38:59.093Z,13.04
2022-10-02T06:39:59.061Z,13.05
2022-10-02T06:40:59.071Z,13.05
2022-10-02T06:41:59.092Z,13.04
2022-10-02T06:42:59.064Z,13.06
2022-10-02T06:43:59.025Z,13.06
2022-10-02T06:44:59.024Z,13.08
2022-10-02T06:45:59.155Z,13.06
2022-10-02T06:46:59.000Z,13.06
2022-10-02T06:47:58.992Z,13.08
2022-10-02T06:48:58.995Z,13.09
2022-10-02T06:49:58.962Z,13.06
2022-10-02T06:50:58.960Z,13.08
2022-10-02T06:51:58.948Z,13.08
2022-10-02T06:52:58.935Z,13.11
2022-10-02T06:53:58.929Z,13.11
2022-10-02T06:54:58.925Z,13.09
2022-10-02T06:55:58.907Z,13.08
2022-10-02T06:56:58.888Z,13.11
2022-10-02T06:57:58.872Z,13.11
2022-10-02T06:58:58.876Z,13.14
2022-10-02T06:59:58.853Z,13.13
2022-10-02T07:00:58.877Z,13.11
2022-10-02T07:01:58.881Z,13.11
2022-10-02T07:02:58.827Z,13.14
2022-10-02T07:03:58.826Z,13.13
2022-10-02T07:04:58.792Z,13.14
2022-10-02T07:05:58.780Z,13.17
2022-10-02T07:06:58.869Z,13.17
2022-10-02T07:07:58.765Z,13.17
2022-10-02T07:08:58.761Z,13.16
2022-10-02T07:09:58.789Z,13.16
2022-10-02T07:10:58.726Z,13.19
2022-10-02T07:11:58.712Z,13.20
2022-10-02T07:12:58.709Z,13.17
2022-10-02T07:13:58.681Z,13.14
2022-10-02T07:14:58.777Z,13.16
2022-10-02T07:15:58.689Z,13.16
2022-10-02T07:16:58.685Z,13.16
2022-10-02T07:17:58.721Z,13.20
2022-10-02T07:18:58.669Z,13.20
2022-10-02T07:19:58.635Z,13.23
2022-10-02T07:20:58.625Z,13.24
2022-10-02T07:21:58.617Z,13.30
2022-10-02T07:22:58.602Z,13.35
2022-10-02T07:24:02.190Z,13.35
2022-10-02T07:24:58.584Z,13.39
2022-10-02T07:25:58.568Z,13.38
2022-10-02T07:26:58.591Z,13.40
2022-10-02T07:27:58.568Z,13.42
2022-10-02T07:28:58.536Z,13.45
2022-10-02T07:29:58.544Z,13.46
2022-10-02T07:30:58.533Z,13.51
2022-10-02T07:31:58.564Z,13.53
2022-10-02T07:32:58.513Z,13.57
2022-10-02T07:33:58.468Z,13.63
2022-10-02T07:34:58.482Z,13.65
2022-10-02T07:35:58.466Z,13.63
2022-10-02T07:36:58.445Z,13.67
2022-10-02T07:37:58.540Z,13.71
2022-10-02T07:38:58.441Z,13.73
2022-10-02T07:39:58.409Z,13.78
2022-10-02T07:41:00.067Z,13.80
2022-10-02T07:41:58.398Z,13.76
2022-10-02T07:42:58.413Z,13.75
2022-10-02T07:43:58.414Z,13.75
2022-10-02T07:44:58.367Z,13.73
2022-10-02T07:45:58.392Z,13.71
2022-10-02T07:46:58.345Z,13.67
2022-10-02T07:47:58.359Z,13.63
2022-10-02T07:48:58.316Z,13.63
2022-10-02T07:49:58.320Z,13.64
2022-10-02T07:50:58.310Z,13.67
2022-10-02T07:51:58.293Z,13.72
2022-10-02T07:52:58.290Z,13.72
2022-10-02T07:53:58.258Z,13.72
2022-10-02T07:54:58.290Z,13.71
2022-10-02T07:55:58.238Z,13.80
2022-10-02T07:56:58.251Z,13.79
2022-10-02T07:57:58.228Z,13.83
2022-10-02T07:58:58.232Z,13.86
2022-10-02T07:59:58.203Z,13.90
2022-10-02T08:00:58.206Z,13.97
2022-10-02T08:01:58.234Z,14.01
2022-10-02T08:02:58.270Z,14.00
2022-10-02T08:03:58.160Z,14.04
2022-10-02T08:04:58.158Z,14.04
2022-10-02T08:05:58.227Z,14.11
2022-10-02T08:06:58.116Z,14.12
2022-10-02T08:07:58.127Z,14.12
2022-10-02T08:08:58.094Z,14.12
2022-10-02T08:09:58.095Z,14.12
2022-10-02T08:10:58.143Z,14.08
2022-10-02T08:11:58.113Z,14.11
2022-10-02T08:12:58.071Z,14.12
2022-10-02T08:13:58.062Z,14.11
2022-10-02T08:14:58.041Z,14.12
2022-10-02T08:15:58.098Z,14.05
2022-10-02T08:16:58.040Z,14.09
2022-10-02T08:18:10.805Z,14.15
2022-10-02T08:18:58.004Z,14.13
2022-10-02T08:19:57.991Z,14.15
2022-10-02T08:20:58.139Z,14.18
2022-10-02T08:21:57.999Z,14.19
2022-10-02T08:22:57.954Z,14.19
2022-10-02T08:23:57.963Z,14.22
2022-10-02T08:24:57.992Z,14.26
2022-10-02T08:25:57.944Z,14.33
2022-10-02T08:26:57.904Z,14.45
2022-10-02T08:27:57.962Z,14.46
2022-10-02T08:28:57.895Z,14.51
2022-10-02T08:29:57.895Z,14.53
2022-10-02T08:30:57.862Z,14.49
2022-10-02T08:31:57.966Z,14.52
2022-10-02T08:32:57.880Z,14.58
2022-10-02T08:33:57.834Z,14.53
2022-10-02T08:34:57.827Z,14.51
2022-10-02T08:35:57.817Z,14.58
2022-10-02T08:36:57.803Z,14.71
2022-10-02T08:37:57.827Z,14.83
2022-10-02T08:38:57.775Z,14.90
2022-10-02T08:39:57.780Z,14.99
2022-10-02T08:40:57.784Z,15.03
2022-10-02T08:41:57.755Z,14.97
2022-10-02T08:42:57.738Z,14.96
2022-10-02T08:43:57.743Z,14.96
2022-10-02T08:44:57.754Z,15.04
2022-10-02T08:45:57.735Z,15.12
2022-10-02T08:46:57.760Z,15.17
2022-10-02T08:47:57.740Z,15.29
2022-10-02T08:48:57.679Z,15.26
2022-10-02T08:49:57.674Z,15.29
2022-10-02T08:50:57.647Z,15.32
2022-10-02T08:51:57.635Z,15.26
2022-10-02T08:52:57.660Z,15.20
2022-10-02T08:53:57.629Z,15.22
2022-10-02T08:54:57.596Z,15.22
2022-10-02T08:55:57.613Z,15.26
2022-10-02T08:56:57.578Z,15.35
2022-10-02T08:57:57.566Z,15.29
2022-10-02T08:58:57.584Z,15.26
2022-10-02T08:59:57.572Z,15.29
2022-10-02T09:00:57.606Z,15.40
2022-10-02T09:01:59.962Z,15.41
2022-10-02T09:02:57.509Z,15.29
2022-10-02T09:03:57.556Z,15.20
2022-10-02T09:04:57.493Z,15.26
2022-10-02T09:05:57.497Z,15.43
2022-10-02T09:06:57.468Z,15.44
2022-10-02T09:07:57.470Z,15.47
2022-10-02T09:08:57.490Z,15.47
2022-10-02T09:09:57.473Z,15.48
2022-10-02T09:10:57.427Z,15.45
2022-10-02T09:11:57.419Z,15.45
2022-10-02T09:12:57.410Z,15.50
2022-10-02T09:13:57.431Z,15.52
2022-10-02T09:14:59.003Z,15.41
2022-10-02T09:15:57.440Z,15.43
2022-10-02T09:16:57.417Z,15.35
2022-10-02T09:17:57.359Z,15.45
2022-10-02T09:18:57.390Z,15.48
2022-10-02T09:19:57.368Z,15.50
2022-10-02T09:20:57.330Z,15.50
2022-10-02T09:21:57.323Z,15.48
2022-10-02T09:22:57.297Z,15.56
2022-10-02T09:23:57.302Z,15.52
2022-10-02T09:24:57.289Z,15.51
2022-10-02T09:25:57.297Z,15.63
2022-10-02T09:26:57.261Z,15.63
2022-10-02T09:27:57.337Z,15.72
2022-10-02T09:28:57.262Z,15.63
2022-10-02T09:29:57.240Z,15.65
2022-10-02T09:30:57.231Z,15.76
2022-10-02T09:31:57.248Z,15.95
2022-10-02T09:32:57.192Z,16.16
2022-10-02T09:33:57.194Z,16.39
2022-10-02T09:34:57.182Z,16.42
2022-10-02T09:35:57.188Z,16.28
2022-10-02T09:36:57.169Z,16.40
2022-10-02T09:37:57.158Z,16.43
2022-10-02T09:38:57.127Z,16.49
2022-10-02T09:39:57.124Z,16.37
2022-10-02T09:40:57.114Z,16.40
2022-10-02T09:41:57.135Z,16.28
2022-10-02T09:42:57.092Z,16.18
2022-10-02T09:43:57.086Z,16.21
2022-10-02T09:45:01.221Z,16.18
2022-10-02T09:45:57.149Z,16.32
2022-10-02T09:46:57.059Z,16.18
2022-10-02T09:47:57.061Z,16.14
2022-10-02T09:48:57.019Z,16.05
2022-10-02T09:49:57.015Z,15.91
2022-10-02T09:50:56.993Z,15.87
2022-10-02T09:51:56.996Z,15.78
2022-10-02T09:52:57.003Z,15.66
2022-10-02T09:53:56.983Z,15.60
2022-10-02T09:54:56.950Z,15.52
2022-10-02T09:55:56.959Z,15.54
2022-10-02T09:56:56.927Z,15.51
2022-10-02T09:57:56.960Z,15.47
2022-10-02T09:58:56.908Z,15.47
2022-10-02T09:59:56.898Z,15.48
2022-10-02T10:00:56.959Z,15.69
2022-10-02T10:01:56.944Z,16.24
2022-10-02T10:02:56.873Z,16.67
2022-10-02T10:03:56.882Z,17.14
2022-10-02T10:05:11.824Z,17.87
2022-10-02T10:05:56.850Z,17.94
2022-10-02T10:06:56.827Z,18.43
2022-10-02T10:07:56.824Z,17.76
2022-10-02T10:08:56.830Z,17.87
2022-10-02T10:09:56.822Z,17.93
2022-10-02T10:10:56.783Z,17.65
2022-10-02T10:11:56.798Z,17.32
2022-10-02T10:12:56.794Z,17.01
2022-10-02T10:13:56.771Z,16.84
2022-10-02T10:14:56.738Z,17.07
2022-10-02T10:15:56.787Z,17.12
2022-10-02T10:16:56.778Z,16.92
2022-10-02T10:17:56.755Z,16.84
2022-10-02T10:18:56.695Z,16.94
2022-10-02T10:19:56.696Z,16.92
2022-10-02T10:20:56.700Z,16.84
2022-10-02T10:21:56.685Z,16.83
2022-10-02T10:22:56.683Z,16.98
2022-10-02T10:23:56.660Z,16.87
2022-10-02T10:24:56.637Z,16.94
2022-10-02T10:25:56.687Z,16.99
2022-10-02T10:26:56.610Z,17.20
2022-10-02T10:27:56.688Z,17.65
2022-10-02T10:28:57.651Z,17.25
2022-10-02T10:29:56.599Z,17.41
2022-10-02T10:30:56.566Z,17.22
2022-10-02T10:31:56.640Z,17.16
2022-10-02T10:32:56.558Z,17.62
2022-10-02T10:33:56.574Z,17.43
2022-10-02T10:34:56.539Z,17.25
2022-10-02T10:35:56.545Z,17.35
2022-10-02T10:36:56.515Z,17.79
2022-10-02T10:37:56.547Z,17.68
2022-10-02T10:38:56.512Z,17.63
2022-10-02T10:39:56.501Z,17.50
2022-10-02T10:40:56.476Z,17.30
2022-10-02T10:41:56.478Z,17.30
2022-10-02T10:43:07.517Z,17.59
2022-10-02T10:43:56.470Z,17.41
2022-10-02T10:44:56.440Z,17.38
2022-10-02T10:45:57.466Z,17.86
2022-10-02T10:46:56.411Z,17.91
2022-10-02T10:47:56.403Z,17.59
2022-10-02T10:48:56.394Z,17.38
2022-10-02T10:49:56.379Z,17.62
2022-10-02T10:50:56.390Z,17.39
2022-10-02T10:51:56.360Z,17.59
2022-10-02T10:52:56.358Z,17.30
2022-10-02T10:54:01.630Z,17.14
2022-10-02T10:54:56.321Z,17.84
2022-10-02T10:55:56.340Z,18.39
2022-10-02T10:56:56.291Z,17.97
2022-10-02T10:57:56.287Z,17.49
2022-10-02T10:58:56.292Z,17.14
2022-10-02T10:59:56.263Z,16.97
2022-10-02T11:00:56.365Z,16.90
2022-10-02T11:01:56.299Z,16.87
2022-10-02T11:02:56.232Z,16.74
2022-10-02T11:03:56.228Z,16.80
2022-10-02T11:04:56.209Z,16.84
2022-10-02T11:05:56.213Z,16.82
2022-10-02T11:06:56.195Z,16.84
2022-10-02T11:07:56.176Z,16.77
2022-10-02T11:08:56.171Z,16.84
2022-10-02T11:09:56.171Z,16.98
2022-10-02T11:10:56.152Z,17.02
2022-10-02T11:11:56.166Z,17.78
2022-10-02T11:12:56.270Z,18.24
2022-10-02T11:13:56.136Z,19.20
2022-10-02T11:14:56.103Z,19.47
2022-10-02T11:15:56.117Z,19.37
2022-10-02T11:16:56.098Z,19.34
2022-10-02T11:17:56.100Z,19.39
2022-10-02T11:18:56.089Z,19.31
2022-10-02T11:19:56.060Z,19.44
2022-10-02T11:20:56.052Z,18.96
2022-10-02T11:21:56.053Z,18.51
2022-10-02T11:22:56.035Z,18.36
2022-10-02T11:23:56.024Z,18.11
2022-10-02T11:24:56.042Z,17.99
2022-10-02T11:25:55.992Z,17.94
2022-10-02T11:26:55.978Z,17.54
2022-10-02T11:27:56.096Z,17.27
2022-10-02T11:28:56.006Z,17.09
2022-10-02T11:29:55.955Z,16.95
2022-10-02T11:30:55.944Z,16.90
2022-10-02T11:31:55.996Z,16.83
2022-10-02T11:32:55.918Z,16.77
2022-10-02T11:33:55.934Z,16.65
2022-10-02T11:34:55.894Z,16.65
2022-10-02T11:35:55.896Z,16.62
2022-10-02T11:36:55.878Z,16.55
2022-10-02T11:37:55.873Z,16.52
2022-10-02T11:38:55.865Z,16.46
2022-10-02T11:39:55.847Z,16.44
2022-10-02T11:40:55.826Z,16.44
2022-10-02T11:41:55.832Z,16.46
2022-10-02T11:42:55.808Z,16.52
2022-10-02T11:43:55.825Z,16.67
2022-10-02T11:44:55.783Z,16.90
2022-10-02T11:45:55.830Z,17.01
2022-10-02T11:46:55.759Z,17.13
2022-10-02T11:47:55.775Z,17.27
2022-10-02T11:48:55.793Z,17.46
2022-10-02T11:49:55.747Z,17.81
2022-10-02T11:50:55.731Z,18.02
2022-10-02T11:51:55.711Z,17.93
2022-10-02T11:52:55.708Z,17.75
2022-10-02T11:53:55.706Z,17.54
2022-10-02T11:54:55.711Z,17.50
2022-10-02T11:55:55.686Z,17.41
2022-10-02T11:56:55.661Z,17.41
2022-10-02T11:57:55.646Z,17.41
2022-10-02T11:58:55.643Z,17.38
2022-10-02T11:59:55.628Z,17.47
2022-10-02T12:00:55.654Z,17.63
2022-10-02T12:01:55.656Z,17.71
2022-10-02T12:02:55.690Z,17.71
2022-10-02T12:03:55.609Z,17.87
2022-10-02T12:04:55.619Z,18.15
2022-10-02T12:05:55.601Z,18.12
2022-10-02T12:06:55.568Z,18.18
2022-10-02T12:07:55.549Z,18.23
2022-10-02T12:08:55.541Z,18.42
2022-10-02T12:09:55.529Z,18.86
2022-10-02T12:10:55.507Z,19.39
2022-10-02T12:11:55.519Z,19.20
2022-10-02T12:12:55.478Z,19.39
2022-10-02T12:13:55.478Z,19.68
2022-10-02T12:14:55.462Z,20.07
2022-10-02T12:15:55.462Z,19.93
2022-10-02T12:16:55.483Z,19.45
2022-10-02T12:17:55.447Z,19.22
2022-10-02T12:18:55.417Z,19.22
2022-10-02T12:19:55.466Z,18.96
2022-10-02T12:20:55.418Z,18.67
2022-10-02T12:21:55.422Z,18.48
2022-10-02T12:22:55.393Z,18.17
2022-10-02T12:23:55.382Z,18.02
2022-10-02T12:24:55.419Z,17.83
2022-10-02T12:25:55.341Z,17.50
2022-10-02T12:26:55.363Z,17.22
2022-10-02T12:27:55.366Z,17.14
2022-10-02T12:28:55.317Z,17.04
2022-10-02T12:29:55.303Z,16.91
2022-10-02T12:30:55.313Z,16.83
2022-10-02T12:31:55.343Z,16.82
2022-10-02T12:32:55.273Z,16.84
2022-10-02T12:33:56.725Z,16.77
2022-10-02T12:34:55.263Z,16.73
2022-10-02T12:35:55.225Z,16.65
2022-10-02T12:36:55.323Z,16.61
2022-10-02T12:37:55.311Z,16.59
2022-10-02T12:38:55.214Z,17.06
2022-10-02T12:39:55.200Z,17.09
2022-10-02T12:40:55.184Z,16.97
2022-10-02T12:41:55.218Z,16.97
2022-10-02T12:42:55.179Z,16.95
2022-10-02T12:43:55.177Z,17.49
2022-10-02T12:44:55.155Z,18.38
2022-10-02T12:45:55.234Z,19.04
2022-10-02T12:46:55.171Z,19.52
2022-10-02T12:47:55.132Z,19.72
2022-10-02T12:48:55.107Z,20.63
2022-10-02T12:49:55.078Z,21.25
2022-10-02T12:50:55.110Z,21.81
2022-10-02T12:51:55.070Z,21.60